sensor_id;sensor_type;location;lat;lon;timestamp;pressure;altitude;pressure_sealevel;temperature;humidity
6194;BME280;3130;41.564;23.280;2023-05-19T00:01:27;98939.91;;;14.44;100.00
6194;BME280;3130;41.564;23.280;2023-05-19T00:03:57;98941.19;;;14.39;100.00
6194;BME280;3130;41.564;23.280;2023-05-19T00:06:28;98929.47;;;14.35;100.00
6194;BME280;3130;41.564;23.280;2023-05-19T00:08:57;98929.81;;;14.30;100.00
6194;BME280;3130;41.564;23.280;2023-05-19T00:11:25;98927.19;;;14.19;100.00
6194;BME280;3130;41.564;23.280;2023-05-19T00:13:53;98932.81;;;14.13;100.00
6194;BME280;3130;41.564;23.280;2023-05-19T00:16:21;98934.22;;;14.17;100.00
6194;BME280;3130;41.564;23.280;2023-05-19T00:18:48;98916.66;;;14.22;100.00
6194;BME280;3130;41.564;23.280;2023-05-19T00:21:17;98931.19;;;14.34;100.00
6194;BME280;3130;41.564;23.280;2023-05-19T00:23:45;98938.38;;;14.42;100.00
6194;BME280;3130;41.564;23.280;2023-05-19T00:26:12;98940.28;;;14.51;100.00
6194;BME280;3130;41.564;23.280;2023-05-19T00:28:39;98937.91;;;14.59;100.00
6194;BME280;3130;41.564;23.280;2023-05-19T00:31:06;98938.53;;;14.62;100.00
6194;BME280;3130;41.564;23.280;2023-05-19T00:33:33;98935.81;;;14.53;100.00
6194;BME280;3130;41.564;23.280;2023-05-19T00:36:00;98939.69;;;14.69;100.00
6194;BME280;3130;41.564;23.280;2023-05-19T00:38:30;98939.44;;;14.50;100.00
6194;BME280;3130;41.564;23.280;2023-05-19T00:40:57;98935.47;;;14.46;100.00
6194;BME280;3130;41.564;23.280;2023-05-19T00:43:24;98932.75;;;14.37;100.00
6194;BME280;3130;41.564;23.280;2023-05-19T00:45:51;98938.38;;;14.42;100.00
6194;BME280;3130;41.564;23.280;2023-05-19T00:48:18;98928.03;;;14.42;100.00
6194;BME280;3130;41.564;23.280;2023-05-19T00:50:46;98932.41;;;14.52;100.00
6194;BME280;3130;41.564;23.280;2023-05-19T00:53:16;98928.97;;;14.41;100.00
6194;BME280;3130;41.564;23.280;2023-05-19T00:55:45;98929.81;;;14.52;100.00
6194;BME280;3130;41.564;23.280;2023-05-19T00:58:13;98928.03;;;14.42;100.00
6194;BME280;3130;41.564;23.280;2023-05-19T01:00:41;98924.88;;;14.38;100.00
6194;BME280;3130;41.564;23.280;2023-05-19T01:03:08;98929.81;;;14.30;100.00
6194;BME280;3130;41.564;23.280;2023-05-19T01:05:38;98915.50;;;14.26;100.00
6194;BME280;3130;41.564;23.280;2023-05-19T01:08:06;98915.50;;;14.26;100.00
6194;BME280;3130;41.564;23.280;2023-05-19T01:10:33;98920.06;;;14.34;100.00
6194;BME280;3130;41.564;23.280;2023-05-19T01:13:02;98924.88;;;14.38;100.00
6194;BME280;3130;41.564;23.280;2023-05-19T01:15:32;98929.06;;;14.17;100.00
6194;BME280;3130;41.564;23.280;2023-05-19T01:18:07;98933.06;;;14.21;100.00
6194;BME280;3130;41.564;23.280;2023-05-19T01:20:38;98935.28;;;14.26;100.00
6194;BME280;3130;41.564;23.280;2023-05-19T01:23:32;98924.16;;;14.25;100.00
6194;BME280;3130;41.564;23.280;2023-05-19T01:26:40;98925.09;;;14.35;100.00
6194;BME280;3130;41.564;23.280;2023-05-19T01:29:27;98912.41;;;14.21;100.00
6194;BME280;3130;41.564;23.280;2023-05-19T01:31:59;98920.31;;;14.31;100.00
6194;BME280;3130;41.564;23.280;2023-05-19T01:34:26;98918.31;;;14.34;100.00
6194;BME280;3130;41.564;23.280;2023-05-19T01:36:54;98920.31;;;14.42;100.00
6194;BME280;3130;41.564;23.280;2023-05-19T01:39:22;98912.13;;;14.48;100.00
6194;BME280;3130;41.564;23.280;2023-05-19T01:41:51;98912.13;;;14.59;100.00
6194;BME280;3130;41.564;23.280;2023-05-19T01:44:21;98918.72;;;14.74;100.00
6194;BME280;3130;41.564;23.280;2023-05-19T01:46:50;98925.63;;;14.84;100.00
6194;BME280;3130;41.564;23.280;2023-05-19T01:49:18;98918.69;;;14.63;100.00
6194;BME280;3130;41.564;23.280;2023-05-19T01:51:48;98923.03;;;14.62;100.00
6194;BME280;3130;41.564;23.280;2023-05-19T01:54:15;98908.00;;;14.67;100.00
6194;BME280;3130;41.564;23.280;2023-05-19T01:56:48;98908.50;;;14.83;100.00
6194;BME280;3130;41.564;23.280;2023-05-19T01:59:31;98921.66;;;14.80;100.00
6194;BME280;3130;41.564;23.280;2023-05-19T02:02:09;98918.34;;;14.56;100.00
6194;BME280;3130;41.564;23.280;2023-05-19T02:04:44;98921.84;;;14.55;100.00
6194;BME280;3130;41.564;23.280;2023-05-19T02:07:16;98910.00;;;14.53;100.00
6194;BME280;3130;41.564;23.280;2023-05-19T02:09:52;98909.66;;;14.57;100.00
6194;BME280;3130;41.564;23.280;2023-05-19T02:12:27;98908.94;;;14.55;100.00
6194;BME280;3130;41.564;23.280;2023-05-19T02:14:59;98866.97;;;14.31;100.00
6194;BME280;3130;41.564;23.280;2023-05-19T02:17:29;98911.41;;;14.46;100.00
6194;BME280;3130;41.564;23.280;2023-05-19T02:20:00;98893.91;;;14.27;100.00
6194;BME280;3130;41.564;23.280;2023-05-19T02:22:27;98911.97;;;14.38;100.00
6194;BME280;3130;41.564;23.280;2023-05-19T02:24:54;98915.28;;;14.29;100.00
6194;BME280;3130;41.564;23.280;2023-05-19T02:27:22;98922.28;;;14.27;100.00
6194;BME280;3130;41.564;23.280;2023-05-19T02:29:49;98908.91;;;14.22;100.00
6194;BME280;3130;41.564;23.280;2023-05-19T02:32:16;98920.44;;;14.29;100.00
6194;BME280;3130;41.564;23.280;2023-05-19T02:34:43;98912.91;;;14.26;100.00
6194;BME280;3130;41.564;23.280;2023-05-19T02:37:12;98924.19;;;14.36;100.00
6194;BME280;3130;41.564;23.280;2023-05-19T02:39:39;98917.16;;;14.38;100.00
6194;BME280;3130;41.564;23.280;2023-05-19T02:42:06;98918.03;;;14.15;100.00
6194;BME280;3130;41.564;23.280;2023-05-19T02:44:33;98926.44;;;14.07;100.00
6194;BME280;3130;41.564;23.280;2023-05-19T02:47:00;98913.34;;;14.20;100.00
6194;BME280;3130;41.564;23.280;2023-05-19T02:49:27;98911.00;;;14.17;100.00
6194;BME280;3130;41.564;23.280;2023-05-19T02:52:00;98928.06;;;14.07;100.00
6194;BME280;3130;41.564;23.280;2023-05-19T02:54:28;98926.72;;;13.91;100.00
6194;BME280;3130;41.564;23.280;2023-05-19T02:56:55;98885.66;;;13.77;100.00
6194;BME280;3130;41.564;23.280;2023-05-19T02:59:22;98930.22;;;13.90;100.00
6194;BME280;3130;41.564;23.280;2023-05-19T03:04:17;98936.06;;;13.81;100.00
6194;BME280;3130;41.564;23.280;2023-05-19T03:06:44;98928.44;;;13.80;100.00
6194;BME280;3130;41.564;23.280;2023-05-19T03:09:11;98933.59;;;13.80;100.00
6194;BME280;3130;41.564;23.280;2023-05-19T03:11:40;98935.16;;;13.59;100.00
6194;BME280;3130;41.564;23.280;2023-05-19T03:14:07;98933.94;;;13.52;100.00
6194;BME280;3130;41.564;23.280;2023-05-19T03:16:35;98938.19;;;13.40;100.00
6194;BME280;3130;41.564;23.280;2023-05-19T03:19:02;98928.09;;;13.37;100.00
6194;BME280;3130;41.564;23.280;2023-05-19T03:21:29;98911.78;;;13.26;100.00
6194;BME280;3130;41.564;23.280;2023-05-19T03:23:56;98935.22;;;13.34;100.00
6194;BME280;3130;41.564;23.280;2023-05-19T03:26:23;98939.19;;;13.50;100.00
6194;BME280;3130;41.564;23.280;2023-05-19T03:28:52;98941.41;;;13.44;100.00
6194;BME280;3130;41.564;23.280;2023-05-19T03:31:19;98940.06;;;13.38;100.00
6194;BME280;3130;41.564;23.280;2023-05-19T03:33:46;98949.50;;;13.50;100.00
6194;BME280;3130;41.564;23.280;2023-05-19T03:36:13;98947.91;;;13.37;100.00
6194;BME280;3130;41.564;23.280;2023-05-19T03:38:40;98946.97;;;13.38;100.00
6194;BME280;3130;41.564;23.280;2023-05-19T03:41:07;98951.22;;;13.26;100.00
6194;BME280;3130;41.564;23.280;2023-05-19T03:43:34;98951.66;;;13.20;100.00
6194;BME280;3130;41.564;23.280;2023-05-19T03:46:02;98957.84;;;13.18;100.00
6194;BME280;3130;41.564;23.280;2023-05-19T03:48:29;98962.56;;;13.24;100.00
6194;BME280;3130;41.564;23.280;2023-05-19T03:50:56;98962.78;;;13.21;100.00
6194;BME280;3130;41.564;23.280;2023-05-19T03:53:23;98963.53;;;13.10;100.00
6194;BME280;3130;41.564;23.280;2023-05-19T03:55:50;98967.81;;;13.22;100.00
6194;BME280;3130;41.564;23.280;2023-05-19T03:58:17;98967.56;;;13.38;100.00
6194;BME280;3130;41.564;23.280;2023-05-19T04:00:44;98965.69;;;13.52;100.00
6194;BME280;3130;41.564;23.280;2023-05-19T04:03:13;98972.38;;;13.55;100.00
6194;BME280;3130;41.564;23.280;2023-05-19T04:05:40;98975.91;;;13.65;100.00
6194;BME280;3130;41.564;23.280;2023-05-19T04:08:07;98980.97;;;13.66;100.00
6194;BME280;3130;41.564;23.280;2023-05-19T04:10:34;98981.81;;;13.54;100.00
6194;BME280;3130;41.564;23.280;2023-05-19T04:13:01;98980.69;;;13.58;100.00
6194;BME280;3130;41.564;23.280;2023-05-19T04:15:28;98990.56;;;13.64;100.00
6194;BME280;3130;41.564;23.280;2023-05-19T04:17:55;98991.13;;;13.57;100.00
6194;BME280;3130;41.564;23.280;2023-05-19T04:20:23;98993.88;;;13.66;100.00
6194;BME280;3130;41.564;23.280;2023-05-19T04:22:50;98964.09;;;13.62;100.00
6194;BME280;3130;41.564;23.280;2023-05-19T04:25:17;98993.53;;;13.71;100.00
6194;BME280;3130;41.564;23.280;2023-05-19T04:27:44;98997.97;;;13.69;100.00
6194;BME280;3130;41.564;23.280;2023-05-19T04:30:13;99002.66;;;13.87;100.00
6194;BME280;3130;41.564;23.280;2023-05-19T04:32:46;98987.81;;;13.78;100.00
6194;BME280;3130;41.564;23.280;2023-05-19T04:35:14;99008.28;;;13.92;100.00
6194;BME280;3130;41.564;23.280;2023-05-19T04:37:43;99013.38;;;14.05;100.00
6194;BME280;3130;41.564;23.280;2023-05-19T04:40:11;99016.53;;;14.20;100.00
6194;BME280;3130;41.564;23.280;2023-05-19T04:42:38;99014.22;;;14.28;100.00
6194;BME280;3130;41.564;23.280;2023-05-19T04:45:08;99010.38;;;14.34;100.00
6194;BME280;3130;41.564;23.280;2023-05-19T04:47:36;99010.97;;;14.37;99.53
6194;BME280;3130;41.564;23.280;2023-05-19T04:50:04;99011.53;;;14.41;99.03
6194;BME280;3130;41.564;23.280;2023-05-19T04:52:32;99019.22;;;14.53;97.96
6194;BME280;3130;41.564;23.280;2023-05-19T04:55:00;99010.66;;;14.53;98.85
6194;BME280;3130;41.564;23.280;2023-05-19T04:57:27;99029.22;;;14.80;96.49
6194;BME280;3130;41.564;23.280;2023-05-19T04:59:54;99025.50;;;14.84;95.52
6194;BME280;3130;41.564;23.280;2023-05-19T05:02:24;99021.41;;;14.81;92.33
6194;BME280;3130;41.564;23.280;2023-05-19T05:04:52;99026.31;;;15.06;91.97
6194;BME280;3130;41.564;23.280;2023-05-19T05:07:21;99022.56;;;15.10;91.22
6194;BME280;3130;41.564;23.280;2023-05-19T05:09:48;99030.59;;;15.18;90.59
6194;BME280;3130;41.564;23.280;2023-05-19T05:12:17;99033.16;;;15.18;89.46
6194;BME280;3130;41.564;23.280;2023-05-19T05:14:45;99040.56;;;15.33;88.63
6194;BME280;3130;41.564;23.280;2023-05-19T05:17:12;99033.19;;;15.51;86.70
6194;BME280;3130;41.564;23.280;2023-05-19T05:19:41;99035.25;;;15.57;86.77
6194;BME280;3130;41.564;23.280;2023-05-19T05:22:08;99038.56;;;15.59;85.29
6194;BME280;3130;41.564;23.280;2023-05-19T05:24:36;99033.75;;;15.54;84.45
6194;BME280;3130;41.564;23.280;2023-05-19T05:27:03;98883.50;;;14.62;83.87
6194;BME280;3130;41.564;23.280;2023-05-19T05:29:34;99051.91;;;15.86;83.87
6194;BME280;3130;41.564;23.280;2023-05-19T05:32:01;99053.09;;;15.82;82.81
6194;BME280;3130;41.564;23.280;2023-05-19T05:34:28;99050.13;;;15.86;82.55
6194;BME280;3130;41.564;23.280;2023-05-19T05:36:55;99048.91;;;16.01;82.22
6194;BME280;3130;41.564;23.280;2023-05-19T05:39:22;99051.25;;;16.15;81.65
6194;BME280;3130;41.564;23.280;2023-05-19T05:41:49;99049.09;;;16.31;80.26
6194;BME280;3130;41.564;23.280;2023-05-19T05:44:16;99051.06;;;16.38;79.70
6194;BME280;3130;41.564;23.280;2023-05-19T05:46:45;99047.03;;;16.45;78.84
6194;BME280;3130;41.564;23.280;2023-05-19T05:49:13;99061.44;;;16.59;79.07
6194;BME280;3130;41.564;23.280;2023-05-19T05:51:40;99059.41;;;16.62;78.41
6194;BME280;3130;41.564;23.280;2023-05-19T05:54:11;99066.44;;;16.71;77.53
6194;BME280;3130;41.564;23.280;2023-05-19T05:56:38;99067.13;;;16.73;76.66
6194;BME280;3130;41.564;23.280;2023-05-19T05:59:05;99078.69;;;16.90;76.87
6194;BME280;3130;41.564;23.280;2023-05-19T06:01:33;99071.81;;;17.00;76.99
6194;BME280;3130;41.564;23.280;2023-05-19T06:04:03;99078.47;;;17.22;76.17
6194;BME280;3130;41.564;23.280;2023-05-19T06:06:30;99085.72;;;17.28;75.00
6194;BME280;3130;41.564;23.280;2023-05-19T06:08:57;99079.22;;;17.34;74.82
6194;BME280;3130;41.564;23.280;2023-05-19T06:11:24;99080.81;;;17.46;74.23
6194;BME280;3130;41.564;23.280;2023-05-19T06:13:51;99076.75;;;17.62;73.58
6194;BME280;3130;41.564;23.280;2023-05-19T06:16:18;99082.13;;;17.70;73.12
6194;BME280;3130;41.564;23.280;2023-05-19T06:18:45;99082.13;;;17.70;72.15
6194;BME280;3130;41.564;23.280;2023-05-19T06:21:13;99077.78;;;17.90;72.36
6194;BME280;3130;41.564;23.280;2023-05-19T06:23:42;99086.84;;;18.05;70.84
6194;BME280;3130;41.564;23.280;2023-05-19T06:26:09;99090.69;;;18.19;68.37
6194;BME280;3130;41.564;23.280;2023-05-19T06:28:36;99087.59;;;18.35;67.86
6194;BME280;3130;41.564;23.280;2023-05-19T06:31:03;99101.97;;;18.58;66.25
6194;BME280;3130;41.564;23.280;2023-05-19T06:33:30;99095.81;;;18.68;63.90
6194;BME280;3130;41.564;23.280;2023-05-19T06:35:57;99101.81;;;18.78;64.25
6194;BME280;3130;41.564;23.280;2023-05-19T06:38:25;99095.50;;;18.81;64.21
6194;BME280;3130;41.564;23.280;2023-05-19T06:40:52;99099.34;;;18.86;62.82
6194;BME280;3130;41.564;23.280;2023-05-19T06:43:19;99056.69;;;18.70;63.66
6194;BME280;3130;41.564;23.280;2023-05-19T06:45:46;99056.50;;;18.90;62.66
6194;BME280;3130;41.564;23.280;2023-05-19T06:48:13;99095.06;;;19.23;61.43
6194;BME280;3130;41.564;23.280;2023-05-19T06:50:40;99094.47;;;19.29;60.88
6194;BME280;3130;41.564;23.280;2023-05-19T06:53:07;99057.84;;;19.13;59.13
6194;BME280;3130;41.564;23.280;2023-05-19T06:55:36;99091.28;;;19.44;59.22
6194;BME280;3130;41.564;23.280;2023-05-19T06:58:03;99087.09;;;19.61;60.13
6194;BME280;3130;41.564;23.280;2023-05-19T07:00:30;99070.28;;;19.55;59.56
6194;BME280;3130;41.564;23.280;2023-05-19T07:02:57;99085.09;;;19.55;57.71
6194;BME280;3130;41.564;23.280;2023-05-19T07:05:24;99090.22;;;19.74;59.11
6194;BME280;3130;41.564;23.280;2023-05-19T07:07:51;99089.63;;;19.80;57.19
6194;BME280;3130;41.564;23.280;2023-05-19T07:10:18;99031.22;;;19.65;57.34
6194;BME280;3130;41.564;23.280;2023-05-19T07:12:47;99077.06;;;20.02;56.98
6194;BME280;3130;41.564;23.280;2023-05-19T07:15:14;99088.34;;;20.20;56.09
6194;BME280;3130;41.564;23.280;2023-05-19T07:17:41;99069.56;;;20.17;56.03
6194;BME280;3130;41.564;23.280;2023-05-19T07:20:09;99085.13;;;20.61;55.63
6194;BME280;3130;41.564;23.280;2023-05-19T07:22:36;99083.41;;;20.69;55.61
6194;BME280;3130;41.564;23.280;2023-05-19T07:25:04;99084.22;;;20.70;56.06
6194;BME280;3130;41.564;23.280;2023-05-19T07:27:31;99079.47;;;20.83;54.70
6194;BME280;3130;41.564;23.280;2023-05-19T07:30:00;99078.91;;;20.97;54.75
6194;BME280;3130;41.564;23.280;2023-05-19T07:32:28;99083.72;;;21.09;54.38
6194;BME280;3130;41.564;23.280;2023-05-19T07:34:55;99088.47;;;21.14;53.09
6194;BME280;3130;41.564;23.280;2023-05-19T07:37:22;99065.06;;;21.22;53.73
6194;BME280;3130;41.564;23.280;2023-05-19T07:39:49;99065.94;;;21.30;53.52
6194;BME280;3130;41.564;23.280;2023-05-19T07:42:16;99096.38;;;21.55;51.71
6194;BME280;3130;41.564;23.280;2023-05-19T07:44:43;99072.34;;;21.43;50.32
6194;BME280;3130;41.564;23.280;2023-05-19T07:47:12;99025.59;;;20.91;51.75
6194;BME280;3130;41.564;23.280;2023-05-19T07:49:40;99082.84;;;21.51;51.10
6194;BME280;3130;41.564;23.280;2023-05-19T07:52:07;99080.00;;;21.70;52.14
6194;BME280;3130;41.564;23.280;2023-05-19T07:54:34;99081.88;;;21.86;52.08
6194;BME280;3130;41.564;23.280;2023-05-19T07:57:01;99086.19;;;22.03;50.38
6194;BME280;3130;41.564;23.280;2023-05-19T07:59:28;99071.75;;;21.91;50.35
6194;BME280;3130;41.564;23.280;2023-05-19T08:01:56;99075.56;;;22.04;49.70
6194;BME280;3130;41.564;23.280;2023-05-19T08:04:24;99092.41;;;22.26;49.25
6194;BME280;3130;41.564;23.280;2023-05-19T08:06:52;99072.88;;;22.45;49.52
6194;BME280;3130;41.564;23.280;2023-05-19T08:09:19;99087.75;;;22.69;49.13
6194;BME280;3130;41.564;23.280;2023-05-19T08:11:46;99086.78;;;22.62;48.31
6194;BME280;3130;41.564;23.280;2023-05-19T08:14:14;99093.31;;;22.50;48.60
6194;BME280;3130;41.564;23.280;2023-05-19T08:16:41;99081.88;;;22.59;47.33
6194;BME280;3130;41.564;23.280;2023-05-19T08:19:10;99088.13;;;22.01;46.83
6194;BME280;3130;41.564;23.280;2023-05-19T08:21:38;99080.59;;;22.06;48.27
6194;BME280;3130;41.564;23.280;2023-05-19T08:24:06;99076.75;;;22.26;48.25
6194;BME280;3130;41.564;23.280;2023-05-19T08:26:34;99072.31;;;22.18;48.46
6194;BME280;3130;41.564;23.280;2023-05-19T08:29:01;99074.63;;;22.29;48.78
6194;BME280;3130;41.564;23.280;2023-05-19T08:31:28;99085.94;;;22.45;49.12
6194;BME280;3130;41.564;23.280;2023-05-19T08:33:55;99084.63;;;22.34;49.07
6194;BME280;3130;41.564;23.280;2023-05-19T08:36:22;99081.47;;;22.22;50.02
6194;BME280;3130;41.564;23.280;2023-05-19T08:38:50;99078.84;;;22.06;50.77
6194;BME280;3130;41.564;23.280;2023-05-19T08:41:18;99076.53;;;21.95;50.98
6194;BME280;3130;41.564;23.280;2023-05-19T08:43:46;99076.47;;;21.87;51.27
6194;BME280;3130;41.564;23.280;2023-05-19T08:46:13;99071.22;;;21.79;49.82
6194;BME280;3130;41.564;23.280;2023-05-19T08:48:42;99075.88;;;21.60;50.71
6194;BME280;3130;41.564;23.280;2023-05-19T08:51:16;99073.09;;;21.61;51.40
6194;BME280;3130;41.564;23.280;2023-05-19T08:53:47;99082.16;;;21.75;51.38
6194;BME280;3130;41.564;23.280;2023-05-19T08:56:20;99076.56;;;21.62;51.33
6194;BME280;3130;41.564;23.280;2023-05-19T08:58:49;99062.53;;;21.63;51.94
6194;BME280;3130;41.564;23.280;2023-05-19T09:01:18;99046.88;;;21.63;52.21
6194;BME280;3130;41.564;23.280;2023-05-19T09:03:46;99069.97;;;21.99;51.34
6194;BME280;3130;41.564;23.280;2023-05-19T09:06:14;99060.06;;;22.11;50.55
6194;BME280;3130;41.564;23.280;2023-05-19T09:08:42;99036.56;;;22.27;49.86
6194;BME280;3130;41.564;23.280;2023-05-19T09:11:10;99056.72;;;22.66;49.81
6194;BME280;3130;41.564;23.280;2023-05-19T09:13:39;99055.09;;;22.81;49.16
6194;BME280;3130;41.564;23.280;2023-05-19T09:16:06;99049.31;;;23.01;48.75
6194;BME280;3130;41.564;23.280;2023-05-19T09:18:37;99014.69;;;22.91;48.20
6194;BME280;3130;41.564;23.280;2023-05-19T09:21:05;99045.88;;;23.25;47.72
6194;BME280;3130;41.564;23.280;2023-05-19T09:23:32;99040.91;;;23.38;47.21
6194;BME280;3130;41.564;23.280;2023-05-19T09:26:01;99052.06;;;23.32;47.51
6194;BME280;3130;41.564;23.280;2023-05-19T09:28:33;99035.00;;;23.43;47.42
6194;BME280;3130;41.564;23.280;2023-05-19T09:31:03;99016.63;;;23.05;47.65
6194;BME280;3130;41.564;23.280;2023-05-19T09:33:32;99033.00;;;23.07;47.59
6194;BME280;3130;41.564;23.280;2023-05-19T09:35:59;99026.47;;;22.87;48.15
6194;BME280;3130;41.564;23.280;2023-05-19T09:38:27;99017.31;;;22.83;50.28
6194;BME280;3130;41.564;23.280;2023-05-19T09:40:56;99032.31;;;23.21;49.03
6194;BME280;3130;41.564;23.280;2023-05-19T09:43:23;99024.78;;;23.18;48.23
6194;BME280;3130;41.564;23.280;2023-05-19T09:45:54;99014.84;;;22.90;48.26
6194;BME280;3130;41.564;23.280;2023-05-19T09:48:25;99014.16;;;23.04;48.80
6194;BME280;3130;41.564;23.280;2023-05-19T09:50:52;99012.69;;;23.17;47.82
6194;BME280;3130;41.564;23.280;2023-05-19T09:53:20;99009.16;;;23.41;47.75
6194;BME280;3130;41.564;23.280;2023-05-19T09:55:48;98972.91;;;23.30;46.90
6194;BME280;3130;41.564;23.280;2023-05-19T09:58:17;98997.97;;;23.54;47.51
6194;BME280;3130;41.564;23.280;2023-05-19T10:00:45;98999.34;;;23.81;47.12
6194;BME280;3130;41.564;23.280;2023-05-19T10:03:13;98990.25;;;23.91;45.71
6194;BME280;3130;41.564;23.280;2023-05-19T10:05:44;98996.88;;;23.87;45.39
6194;BME280;3130;41.564;23.280;2023-05-19T10:08:12;99006.72;;;23.77;46.01
6194;BME280;3130;41.564;23.280;2023-05-19T10:10:43;99001.94;;;23.81;46.57
6194;BME280;3130;41.564;23.280;2023-05-19T10:13:11;98998.84;;;23.85;46.99
6194;BME280;3130;41.564;23.280;2023-05-19T10:15:39;98987.28;;;23.64;47.03
6194;BME280;3130;41.564;23.280;2023-05-19T10:18:08;98986.69;;;23.54;47.77
6194;BME280;3130;41.564;23.280;2023-05-19T10:20:35;98981.00;;;23.42;47.38
6194;BME280;3130;41.564;23.280;2023-05-19T10:23:04;98964.41;;;23.20;47.10
6194;BME280;3130;41.564;23.280;2023-05-19T10:25:32;98979.50;;;23.48;48.24
6194;BME280;3130;41.564;23.280;2023-05-19T10:28:04;98976.59;;;23.81;46.76
6194;BME280;3130;41.564;23.280;2023-05-19T10:30:35;98977.06;;;24.07;45.91
6194;BME280;3130;41.564;23.280;2023-05-19T10:33:07;98920.88;;;24.10;45.17
6194;BME280;3130;41.564;23.280;2023-05-19T10:35:47;98977.56;;;24.70;43.30
6194;BME280;3130;41.564;23.280;2023-05-19T10:38:26;98961.16;;;24.68;43.10
6194;BME280;3130;41.564;23.280;2023-05-19T10:41:03;98990.38;;;24.43;42.93
6194;BME280;3130;41.564;23.280;2023-05-19T10:43:50;98976.88;;;24.31;44.39
6194;BME280;3130;41.564;23.280;2023-05-19T10:46:23;98999.44;;;24.40;45.01
6194;BME280;3130;41.564;23.280;2023-05-19T10:48:50;98988.34;;;24.30;45.77
6194;BME280;3130;41.564;23.280;2023-05-19T10:51:17;98991.09;;;24.37;44.94
6194;BME280;3130;41.564;23.280;2023-05-19T10:53:46;98997.41;;;24.05;43.26
6194;BME280;3130;41.564;23.280;2023-05-19T10:56:27;98997.41;;;23.67;44.40
6194;BME280;3130;41.564;23.280;2023-05-19T10:58:57;99001.97;;;23.42;45.60
6194;BME280;3130;41.564;23.280;2023-05-19T11:01:29;98984.53;;;23.27;45.59
6194;BME280;3130;41.564;23.280;2023-05-19T11:04:03;98990.88;;;23.33;45.88
6194;BME280;3130;41.564;23.280;2023-05-19T11:06:31;98994.84;;;23.21;46.47
6194;BME280;3130;41.564;23.280;2023-05-19T11:09:10;98963.66;;;22.95;46.21
6194;BME280;3130;41.564;23.280;2023-05-19T11:11:47;98988.00;;;23.12;47.02
6194;BME280;3130;41.564;23.280;2023-05-19T11:14:17;98992.72;;;23.24;48.84
6194;BME280;3130;41.564;23.280;2023-05-19T11:16:46;98976.91;;;23.10;50.94
6194;BME280;3130;41.564;23.280;2023-05-19T11:19:17;98995.69;;;23.05;52.41
6194;BME280;3130;41.564;23.280;2023-05-19T11:21:49;98998.69;;;22.78;51.68
6194;BME280;3130;41.564;23.280;2023-05-19T11:24:43;98988.72;;;22.82;52.40
6194;BME280;3130;41.564;23.280;2023-05-19T11:27:19;98984.94;;;22.76;56.36
6194;BME280;3130;41.564;23.280;2023-05-19T11:29:47;98987.75;;;22.83;58.27
6194;BME280;3130;41.564;23.280;2023-05-19T11:32:14;98989.94;;;23.02;58.09
6194;BME280;3130;41.564;23.280;2023-05-19T11:34:43;98990.50;;;22.89;57.74
6194;BME280;3130;41.564;23.280;2023-05-19T11:37:11;98981.53;;;22.76;57.60
6194;BME280;3130;41.564;23.280;2023-05-19T11:39:38;98959.47;;;22.70;56.96
6194;BME280;3130;41.564;23.280;2023-05-19T11:42:07;98912.16;;;22.34;58.21
6194;BME280;3130;41.564;23.280;2023-05-19T11:44:35;98969.94;;;22.70;58.84
6194;BME280;3130;41.564;23.280;2023-05-19T11:47:03;98972.38;;;22.72;59.37
6194;BME280;3130;41.564;23.280;2023-05-19T11:49:30;98972.72;;;22.53;57.35
6194;BME280;3130;41.564;23.280;2023-05-19T11:51:58;98961.97;;;22.48;58.60
6194;BME280;3130;41.564;23.280;2023-05-19T11:54:29;98968.13;;;22.15;60.03
6194;BME280;3130;41.564;23.280;2023-05-19T11:56:59;98969.09;;;21.98;61.13
6194;BME280;3130;41.564;23.280;2023-05-19T11:59:32;98971.25;;;22.03;60.67
6194;BME280;3130;41.564;23.280;2023-05-19T12:02:00;98969.94;;;22.15;61.70
6194;BME280;3130;41.564;23.280;2023-05-19T12:04:29;98970.59;;;22.25;62.34
6194;BME280;3130;41.564;23.280;2023-05-19T12:06:57;98972.75;;;22.37;61.46
6194;BME280;3130;41.564;23.280;2023-05-19T12:09:24;98940.06;;;22.25;61.28
6194;BME280;3130;41.564;23.280;2023-05-19T12:11:54;98970.78;;;22.47;61.60
6194;BME280;3130;41.564;23.280;2023-05-19T12:14:21;98957.72;;;22.47;61.12
6194;BME280;3130;41.564;23.280;2023-05-19T12:16:50;98929.75;;;22.24;62.24
6194;BME280;3130;41.564;23.280;2023-05-19T12:19:17;98945.47;;;22.40;61.82
6194;BME280;3130;41.564;23.280;2023-05-19T12:21:44;98942.03;;;22.39;60.72
6194;BME280;3130;41.564;23.280;2023-05-19T12:24:11;98937.47;;;22.41;61.58
6194;BME280;3130;41.564;23.280;2023-05-19T12:26:39;98932.38;;;22.47;61.66
6194;BME280;3130;41.564;23.280;2023-05-19T12:29:07;98930.44;;;22.49;61.44
6194;BME280;3130;41.564;23.280;2023-05-19T12:31:35;98923.22;;;22.51;61.21
6194;BME280;3130;41.564;23.280;2023-05-19T12:34:04;98874.56;;;22.27;60.66
6194;BME280;3130;41.564;23.280;2023-05-19T12:36:31;98917.03;;;22.52;61.73
6194;BME280;3130;41.564;23.280;2023-05-19T12:38:58;98914.41;;;22.52;62.05
6194;BME280;3130;41.564;23.280;2023-05-19T12:41:25;98897.25;;;22.50;61.52
6194;BME280;3130;41.564;23.280;2023-05-19T12:43:53;98906.53;;;22.60;62.14
6194;BME280;3130;41.564;23.280;2023-05-19T12:46:20;98905.88;;;22.58;62.03
6194;BME280;3130;41.564;23.280;2023-05-19T12:48:48;98905.72;;;22.60;62.78
6194;BME280;3130;41.564;23.280;2023-05-19T12:51:17;98901.34;;;22.52;62.05
6194;BME280;3130;41.564;23.280;2023-05-19T12:53:45;98907.38;;;22.53;61.98
6194;BME280;3130;41.564;23.280;2023-05-19T12:56:14;98912.59;;;22.53;58.45
6194;BME280;3130;41.564;23.280;2023-05-19T12:58:41;98892.69;;;22.44;55.55
6194;BME280;3130;41.564;23.280;2023-05-19T13:01:15;98909.97;;;22.53;55.70
6194;BME280;3130;41.564;23.280;2023-05-19T13:03:42;98913.53;;;22.68;56.54
6194;BME280;3130;41.564;23.280;2023-05-19T13:06:09;98884.50;;;22.55;55.57
6194;BME280;3130;41.564;23.280;2023-05-19T13:08:38;98906.81;;;22.89;55.73
6194;BME280;3130;41.564;23.280;2023-05-19T13:11:05;98910.84;;;23.08;56.35
6194;BME280;3130;41.564;23.280;2023-05-19T13:13:32;98911.91;;;23.21;56.15
6194;BME280;3130;41.564;23.280;2023-05-19T13:15:59;98903.88;;;23.23;55.95
6194;BME280;3130;41.564;23.280;2023-05-19T13:18:26;98922.31;;;23.37;53.71